createdAt,value
2018-04-11T00:00:44.544Z,10.71
2018-04-11T00:01:44.575Z,10.74
2018-04-11T00:02:44.604Z,10.71
2018-04-11T00:03:44.607Z,10.59
2018-04-11T00:04:44.628Z,10.71
2018-04-11T00:05:44.646Z,10.86
2018-04-11T00:06:44.688Z,11.03
2018-04-11T00:07:44.706Z,11.21
2018-04-11T00:08:44.724Z,11.02
2018-04-11T00:09:44.778Z,11.25
2018-04-11T00:10:44.755Z,11.31
2018-04-11T00:11:44.760Z,11.41
2018-04-11T00:12:44.814Z,11.29
2018-04-11T00:13:44.804Z,11.36
2018-04-11T00:14:44.837Z,11.35
2018-04-11T00:15:44.877Z,11.38
2018-04-11T00:16:44.863Z,11.29
2018-04-11T00:17:44.897Z,11.24
2018-04-11T00:18:44.900Z,11.01
2018-04-11T00:19:44.921Z,10.76
2018-04-11T00:20:44.944Z,10.84
2018-04-11T00:21:44.960Z,11.16
2018-04-11T00:22:44.973Z,11.19
2018-04-11T00:23:45.006Z,11.28
2018-04-11T00:24:45.018Z,11.29
2018-04-11T00:25:45.040Z,11.38
2018-04-11T00:26:45.058Z,11.24
2018-04-11T00:27:45.076Z,10.83
2018-04-11T00:28:45.106Z,11.01
2018-04-11T00:29:45.114Z,10.68
2018-04-11T00:30:45.189Z,10.52
2018-04-11T00:31:45.152Z,10.60
2018-04-11T00:32:45.171Z,10.43
2018-04-11T00:33:45.186Z,10.46
2018-04-11T00:34:45.207Z,10.56
2018-04-11T00:35:45.223Z,10.58
2018-04-11T00:36:45.240Z,10.55
2018-04-11T00:37:45.269Z,10.36
2018-04-11T00:38:45.299Z,10.25
2018-04-11T00:39:45.300Z,10.36
2018-04-11T00:40:45.319Z,10.34
2018-04-11T00:41:45.337Z,10.28
2018-04-11T00:42:45.376Z,10.24
2018-04-11T00:43:45.373Z,10.12
2018-04-11T00:44:45.400Z,10.00
2018-04-11T00:45:45.422Z,10.06
2018-04-11T00:46:45.435Z,10.26
2018-04-11T00:47:45.453Z,10.25
2018-04-11T00:48:45.473Z,10.12
2018-04-11T00:49:45.494Z,10.32
2018-04-11T00:50:45.509Z,10.53
2018-04-11T00:51:45.532Z,10.46
2018-04-11T00:52:45.553Z,10.74
2018-04-11T00:53:45.588Z,10.65
2018-04-11T00:54:45.595Z,10.70
2018-04-11T00:55:45.606Z,10.71
2018-04-11T00:56:45.627Z,10.60
2018-04-11T00:57:45.645Z,10.70
2018-04-11T00:58:45.665Z,10.56
2018-04-11T00:59:45.680Z,10.47
2018-04-11T01:00:45.702Z,10.18
2018-04-11T01:01:45.719Z,10.03
2018-04-11T01:02:45.741Z,9.94
2018-04-11T01:03:45.773Z,9.70
2018-04-11T01:04:45.779Z,9.70
2018-04-11T01:05:45.796Z,9.81
2018-04-11T01:06:45.816Z,9.68
2018-04-11T01:07:45.836Z,9.78
2018-04-11T01:08:45.847Z,9.94
2018-04-11T01:09:45.872Z,10.19
2018-04-11T01:10:45.890Z,10.34
2018-04-11T01:11:45.911Z,10.44
2018-04-11T01:12:45.930Z,10.39
2018-04-11T01:13:45.948Z,10.47
2018-04-11T01:14:45.965Z,10.58
2018-04-11T01:15:45.985Z,10.47
2018-04-11T01:16:46.008Z,10.17
2018-04-11T01:17:46.030Z,9.85
2018-04-11T01:18:46.039Z,9.79
2018-04-11T01:19:46.071Z,9.91
2018-04-11T01:20:46.082Z,10.03
2018-04-11T01:21:46.097Z,10.09
2018-04-11T01:22:46.121Z,10.36
2018-04-11T01:23:46.139Z,10.39
2018-04-11T01:24:46.160Z,10.39
2018-04-11T01:25:46.176Z,10.52
2018-04-11T01:26:46.196Z,10.28
2018-04-11T01:27:46.210Z,9.83
2018-04-11T01:28:46.234Z,9.63
2018-04-11T01:29:46.257Z,10.00
2018-04-11T01:30:46.277Z,10.17
2018-04-11T01:31:46.301Z,10.36
2018-04-11T01:32:46.310Z,10.26
2018-04-11T01:33:46.331Z,10.24
2018-04-11T01:34:46.345Z,10.19
2018-04-11T01:35:46.360Z,10.01
2018-04-11T01:36:46.382Z,10.09
2018-04-11T01:37:46.397Z,10.19
2018-04-11T01:38:46.425Z,10.25
2018-04-11T01:39:46.437Z,10.26
2018-04-11T01:40:46.456Z,10.32
2018-04-11T01:41:46.476Z,10.32
2018-04-11T01:42:46.499Z,10.36
2018-04-11T01:43:46.512Z,10.43
2018-04-11T01:44:46.531Z,10.40
2018-04-11T01:45:46.550Z,10.36
2018-04-11T01:46:46.571Z,10.46
2018-04-11T01:47:46.589Z,10.37
2018-04-11T01:48:46.606Z,10.30
2018-04-11T01:49:46.627Z,9.79
2018-04-11T01:50:46.646Z,9.61
2018-04-11T01:51:46.669Z,9.93
2018-04-11T01:52:46.681Z,9.97
2018-04-11T01:53:46.700Z,10.17
2018-04-11T01:54:46.717Z,9.83
2018-04-11T01:55:46.738Z,9.75
2018-04-11T01:56:46.785Z,9.86
2018-04-11T01:57:46.804Z,9.79
2018-04-11T01:58:46.829Z,9.96
2018-04-11T01:59:46.821Z,9.60
2018-04-11T02:00:46.829Z,9.64
2018-04-11T02:01:46.846Z,9.83
2018-04-11T02:02:46.868Z,9.86
2018-04-11T02:03:46.891Z,10.14
2018-04-11T02:04:46.910Z,9.93
2018-04-11T02:05:46.935Z,10.00
2018-04-11T02:06:46.952Z,10.03
2018-04-11T02:07:46.969Z,9.97
2018-04-11T02:08:46.983Z,10.00
2018-04-11T02:09:47.003Z,9.93
2018-04-11T02:10:47.022Z,9.71
2018-04-11T02:11:47.036Z,9.60
2018-04-11T02:12:47.055Z,9.46
2018-04-11T02:13:47.073Z,9.40
2018-04-11T02:14:47.095Z,9.20
2018-04-11T02:15:47.114Z,9.27
2018-04-11T02:16:47.128Z,9.58
2018-04-11T02:17:47.149Z,9.71
2018-04-11T02:18:47.179Z,9.78
2018-04-11T02:19:47.185Z,9.83
2018-04-11T02:20:47.242Z,9.82
2018-04-11T02:21:47.223Z,9.63
2018-04-11T02:22:47.243Z,9.28
2018-04-11T02:23:47.258Z,9.57
2018-04-11T02:24:47.292Z,9.38
2018-04-11T02:25:47.291Z,9.12
2018-04-11T02:26:47.316Z,9.38
2018-04-11T02:27:47.327Z,9.34
2018-04-11T02:28:47.349Z,9.18
2018-04-11T02:29:47.381Z,9.25
2018-04-11T02:30:47.389Z,9.21
2018-04-11T02:31:47.412Z,9.05
2018-04-11T02:32:47.430Z,9.10
2018-04-11T02:33:47.444Z,8.97
2018-04-11T02:34:47.466Z,8.94
2018-04-11T02:35:47.481Z,8.84
2018-04-11T02:36:47.518Z,8.90
2018-04-11T02:37:47.522Z,8.93
2018-04-11T02:38:47.560Z,8.88
2018-04-11T02:39:47.552Z,8.76
2018-04-11T02:40:47.573Z,9.04
2018-04-11T02:41:47.592Z,9.05
2018-04-11T02:42:47.615Z,8.99
2018-04-11T02:43:47.630Z,9.05
2018-04-11T02:44:47.698Z,9.24
2018-04-11T02:45:47.667Z,9.02
2018-04-11T02:46:47.683Z,9.10
2018-04-11T02:47:47.704Z,9.02
2018-04-11T02:48:47.717Z,9.10
2018-04-11T02:49:47.740Z,9.06
2018-04-11T02:50:47.758Z,9.10
2018-04-11T02:51:47.780Z,8.97
2018-04-11T02:52:47.793Z,8.99
2018-04-11T02:53:47.813Z,9.16
2018-04-11T02:54:47.869Z,9.15
2018-04-11T02:55:47.851Z,9.38
2018-04-11T02:56:47.867Z,9.56
2018-04-11T02:57:47.883Z,8.91
2018-04-11T02:58:47.901Z,9.06
2018-04-11T02:59:47.926Z,9.06
2018-04-11T03:00:47.943Z,9.12
2018-04-11T03:01:47.958Z,8.71
2018-04-11T03:02:47.977Z,8.81
2018-04-11T03:03:47.999Z,9.06
2018-04-11T03:04:48.013Z,8.97
2018-04-11T03:05:48.035Z,8.93
2018-04-11T03:06:48.053Z,8.99
2018-04-11T03:07:48.070Z,9.01
2018-04-11T03:08:48.083Z,8.97
2018-04-11T03:09:48.105Z,9.12
2018-04-11T03:10:48.123Z,9.25
2018-04-11T03:11:48.146Z,9.20
2018-04-11T03:12:48.169Z,9.10
2018-04-11T03:13:48.178Z,9.31
2018-04-11T03:14:48.200Z,8.96
2018-04-11T03:15:48.207Z,8.88
2018-04-11T03:16:48.232Z,8.88
2018-04-11T03:17:48.250Z,8.68
2018-04-11T03:18:48.269Z,8.68
2018-04-11T03:19:48.289Z,8.79
2018-04-11T03:20:48.310Z,8.78
2018-04-11T03:21:48.391Z,8.73
2018-04-11T03:22:48.347Z,8.88
2018-04-11T03:23:48.374Z,8.65
2018-04-11T03:24:48.377Z,8.40
2018-04-11T03:25:48.405Z,8.58
2018-04-11T03:26:48.413Z,8.37
2018-04-11T03:27:48.429Z,8.39
2018-04-11T03:28:48.448Z,8.30
2018-04-11T03:29:48.468Z,8.36
2018-04-11T03:30:48.495Z,8.45
2018-04-11T03:31:48.504Z,8.32
2018-04-11T03:32:48.521Z,8.35
2018-04-11T03:33:48.550Z,8.62
2018-04-11T03:34:48.557Z,8.60
2018-04-11T03:35:48.579Z,8.53
2018-04-11T03:36:48.592Z,8.50
2018-04-11T03:37:48.612Z,8.58
2018-04-11T03:38:48.629Z,8.66
2018-04-11T03:39:48.652Z,8.48
2018-04-11T03:40:48.673Z,8.55
2018-04-11T03:41:48.685Z,8.79
2018-04-11T03:42:48.708Z,8.63
2018-04-11T03:43:48.731Z,8.65
2018-04-11T03:44:48.744Z,8.63
2018-04-11T03:45:48.755Z,8.65
2018-04-11T03:46:48.777Z,8.68
2018-04-11T03:47:48.794Z,8.63
2018-04-11T03:48:48.817Z,8.58
2018-04-11T03:49:48.829Z,8.40
2018-04-11T03:50:48.848Z,8.55
2018-04-11T03:51:48.867Z,8.55
2018-04-11T03:52:48.883Z,8.54
2018-04-11T03:53:48.907Z,8.50
2018-04-11T03:54:48.965Z,8.62
2018-04-11T03:55:48.934Z,8.53
2018-04-11T03:56:48.952Z,8.42
2018-04-11T03:57:48.977Z,8.30
2018-04-11T03:58:48.995Z,8.37
2018-04-11T03:59:49.008Z,8.37
2018-04-11T04:00:49.039Z,8.29
2018-04-11T04:01:49.051Z,8.32
2018-04-11T04:02:49.058Z,8.45
2018-04-11T04:03:49.081Z,8.48
2018-04-11T04:04:49.099Z,8.11
2018-04-11T04:05:49.124Z,8.26
2018-04-11T04:06:49.134Z,8.50
2018-04-11T04:07:49.208Z,8.63
2018-04-11T04:08:49.184Z,8.79
2018-04-11T04:09:49.190Z,8.68
2018-04-11T04:10:49.208Z,8.40
2018-04-11T04:11:49.239Z,8.36
2018-04-11T04:12:49.250Z,8.54
2018-04-11T04:13:49.293Z,8.48
2018-04-11T04:14:49.282Z,8.48
2018-04-11T04:15:49.296Z,8.26
2018-04-11T04:16:49.317Z,8.30
2018-04-11T04:17:49.333Z,8.32
2018-04-11T04:18:49.349Z,8.40
2018-04-11T04:19:49.404Z,8.42
2018-04-11T04:20:49.388Z,8.21
2018-04-11T04:21:49.402Z,8.55
2018-04-11T04:22:49.424Z,8.65
2018-04-11T04:23:49.440Z,8.50
2018-04-11T04:24:49.456Z,8.37
2018-04-11T04:25:49.479Z,8.53
2018-04-11T04:26:49.504Z,8.33
2018-04-11T04:27:49.515Z,8.26
2018-04-11T04:28:49.533Z,8.17
2018-04-11T04:29:49.548Z,8.00
2018-04-11T04:30:49.571Z,8.07
2018-04-11T04:31:49.589Z,8.02
2018-04-11T04:32:49.598Z,8.28
2018-04-11T04:33:49.641Z,8.26
2018-04-11T04:34:49.648Z,8.30
2018-04-11T04:35:49.654Z,8.10
2018-04-11T04:36:49.670Z,7.93
2018-04-11T04:37:49.691Z,7.96
2018-04-11T04:38:49.708Z,7.97
2018-04-11T04:39:49.723Z,8.15
2018-04-11T04:40:49.745Z,8.26
2018-04-11T04:41:49.764Z,8.32
2018-04-11T04:42:49.777Z,8.39
2018-04-11T04:43:49.800Z,8.65
2018-04-11T04:44:49.822Z,8.58
2018-04-11T04:45:49.827Z,8.40
2018-04-11T04:46:49.850Z,8.39
2018-04-11T04:47:49.862Z,8.36
2018-04-11T04:48:49.885Z,8.30
2018-04-11T04:49:49.905Z,8.50
2018-04-11T04:50:49.921Z,8.37
2018-04-11T04:51:49.937Z,8.48
2018-04-11T04:52:49.957Z,8.53
2018-04-11T04:53:49.975Z,8.32
2018-04-11T04:54:49.987Z,8.30
2018-04-11T04:55:50.011Z,8.57
2018-04-11T04:56:50.035Z,8.71
2018-04-11T04:57:50.045Z,8.44
2018-04-11T04:58:50.061Z,8.35
2018-04-11T04:59:50.080Z,8.11
2018-04-11T05:00:50.095Z,8.11
2018-04-11T05:01:50.115Z,8.07
2018-04-11T05:02:50.144Z,8.26
2018-04-11T05:03:50.161Z,8.32
2018-04-11T05:04:50.171Z,8.30
2018-04-11T05:05:50.187Z,8.63
2018-04-11T05:06:50.208Z,8.57
2018-04-11T05:07:50.231Z,8.54
2018-04-11T05:08:50.239Z,8.48
2018-04-11T05:09:50.260Z,8.36
2018-04-11T05:10:50.287Z,8.32
2018-04-11T05:11:50.322Z,8.33
2018-04-11T05:12:50.323Z,8.42
2018-04-11T05:13:50.326Z,8.51
2018-04-11T05:14:50.342Z,8.44
2018-04-11T05:15:50.364Z,8.37
2018-04-11T05:16:50.383Z,8.50
2018-04-11T05:17:50.414Z,8.39
2018-04-11T05:18:50.414Z,8.15
2018-04-11T05:19:50.438Z,8.03
2018-04-11T05:20:50.464Z,8.18
2018-04-11T05:21:50.482Z,8.14
2018-04-11T05:22:50.493Z,8.18
2018-04-11T05:23:50.530Z,8.35
2018-04-11T05:24:50.519Z,8.39
2018-04-11T05:25:50.544Z,8.48
2018-04-11T05:26:50.574Z,8.51
2018-04-11T05:27:50.577Z,8.51
2018-04-11T05:28:50.595Z,8.57
2018-04-11T05:29:50.617Z,8.69
2018-04-11T05:30:50.633Z,8.81
2018-04-11T05:31:50.654Z,8.79
2018-04-11T05:32:50.662Z,8.75
2018-04-11T05:33:50.677Z,8.73
2018-04-11T05:34:50.701Z,8.66
2018-04-11T05:35:50.719Z,8.58
2018-04-11T05:36:50.738Z,8.48
2018-04-11T05:37:50.753Z,8.57
2018-04-11T05:38:50.770Z,8.51
2018-04-11T05:39:50.790Z,8.48
2018-04-11T05:40:50.819Z,8.42
2018-04-11T05:41:50.824Z,8.40
2018-04-11T05:42:50.842Z,8.32
2018-04-11T05:43:50.856Z,8.40
2018-04-11T05:44:50.883Z,8.51
2018-04-11T05:45:50.920Z,8.54
2018-04-11T05:46:50.916Z,8.48
2018-04-11T05:47:50.931Z,8.37
2018-04-11T05:48:50.960Z,8.33
2018-04-11T05:49:50.993Z,8.63
2018-04-11T05:50:50.992Z,8.68
2018-04-11T05:51:51.002Z,8.71
2018-04-11T05:52:51.014Z,8.97
2018-04-11T05:53:51.047Z,9.27
2018-04-11T05:54:51.055Z,9.32
2018-04-11T05:55:51.074Z,9.50
2018-04-11T05:56:51.093Z,9.50
2018-04-11T05:57:51.112Z,9.53
2018-04-11T05:58:51.208Z,9.52
2018-04-11T05:59:51.161Z,9.45
2018-04-11T06:00:51.177Z,9.56
2018-04-11T06:01:51.175Z,9.24
2018-04-11T06:02:51.210Z,9.05
2018-04-11T06:03:51.215Z,8.78
2018-04-11T06:04:51.231Z,8.94
2018-04-11T06:05:51.260Z,8.96
2018-04-11T06:06:51.272Z,8.97
2018-04-11T06:07:51.290Z,8.94
2018-04-11T06:08:51.311Z,8.87
2018-04-11T06:09:51.331Z,9.01
2018-04-11T06:10:51.340Z,8.91
2018-04-11T06:11:51.356Z,8.75
2018-04-11T06:12:51.383Z,8.88
2018-04-11T06:13:51.406Z,8.90
2018-04-11T06:14:51.417Z,9.05
2018-04-11T06:15:51.433Z,9.04
2018-04-11T06:16:51.457Z,9.10
2018-04-11T06:17:51.467Z,9.12
2018-04-11T06:18:51.507Z,9.21
2018-04-11T06:19:51.515Z,9.24
2018-04-11T06:20:51.558Z,9.27
2018-04-11T06:21:51.549Z,9.32
2018-04-11T06:22:51.607Z,9.40
2018-04-11T06:23:51.577Z,9.27
2018-04-11T06:24:51.631Z,9.24
2018-04-11T06:25:51.614Z,9.35
2018-04-11T06:26:51.646Z,9.58
2018-04-11T06:27:51.652Z,9.64
2018-04-11T06:28:51.664Z,9.63
2018-04-11T06:29:51.690Z,9.71
2018-04-11T06:30:51.702Z,9.67
2018-04-11T06:31:51.725Z,9.71
2018-04-11T06:32:51.748Z,9.75
2018-04-11T06:33:51.803Z,9.66
2018-04-11T06:34:51.782Z,9.85
2018-04-11T06:35:51.811Z,9.71
2018-04-11T06:36:51.811Z,9.71
2018-04-11T06:37:51.844Z,9.78
2018-04-11T06:38:51.924Z,9.70
2018-04-11T06:39:51.873Z,9.70
2018-04-11T06:40:51.882Z,9.66
2018-04-11T06:41:51.912Z,9.67
2018-04-11T06:42:51.924Z,9.64
2018-04-11T06:43:51.945Z,9.82
2018-04-11T06:44:51.964Z,9.82
2018-04-11T06:45:51.977Z,9.76
2018-04-11T06:46:51.997Z,9.73
2018-04-11T06:47:52.021Z,9.83
2018-04-11T06:48:52.030Z,9.91
2018-04-11T06:49:52.050Z,9.99
2018-04-11T06:50:52.072Z,9.91
2018-04-11T06:51:52.092Z,10.04
2018-04-11T06:52:52.110Z,10.04
2018-04-11T06:53:52.128Z,10.07
2018-04-11T06:54:52.141Z,10.03
2018-04-11T06:55:52.165Z,9.96
2018-04-11T06:56:52.186Z,9.93
2018-04-11T06:57:52.197Z,9.96
2018-04-11T06:58:52.227Z,9.96
2018-04-11T06:59:52.241Z,10.00
2018-04-11T07:00:52.264Z,9.96
2018-04-11T07:01:52.272Z,10.06
2018-04-11T07:02:52.293Z,10.22
2018-04-11T07:03:52.317Z,10.25
2018-04-11T07:04:52.334Z,10.55
2018-04-11T07:05:52.355Z,10.66
2018-04-11T07:06:52.373Z,10.81
2018-04-11T07:07:52.444Z,10.83
2018-04-11T07:08:52.411Z,10.70
2018-04-11T07:09:52.426Z,10.66
2018-04-11T07:10:52.454Z,10.51
2018-04-11T07:11:52.463Z,10.37
2018-04-11T07:12:52.479Z,10.37
2018-04-11T07:13:52.508Z,10.60
2018-04-11T07:14:52.523Z,10.78
2018-04-11T07:15:52.539Z,10.76
2018-04-11T07:16:52.568Z,10.58
2018-04-11T07:17:52.583Z,10.56
2018-04-11T07:18:52.596Z,10.70
2018-04-11T07:19:52.635Z,10.86
2018-04-11T07:20:52.633Z,10.99
2018-04-11T07:21:52.665Z,10.89
2018-04-11T07:22:52.680Z,11.02
2018-04-11T07:23:52.695Z,11.03
2018-04-11T07:24:52.712Z,11.28
2018-04-11T07:25:52.739Z,11.32
2018-04-11T07:26:52.758Z,11.34
2018-04-11T07:27:52.769Z,11.34
2018-04-11T07:28:52.788Z,11.31
2018-04-11T07:29:52.808Z,11.49
2018-04-11T07:30:52.829Z,11.43
2018-04-11T07:31:52.851Z,11.36
2018-04-11T07:32:52.871Z,11.44
2018-04-11T07:33:52.886Z,11.67
2018-04-11T07:34:52.904Z,11.61
2018-04-11T07:35:52.922Z,11.80
2018-04-11T07:36:52.941Z,11.72
2018-04-11T07:37:52.962Z,11.67
2018-04-11T07:38:52.981Z,11.74
2018-04-11T07:39:53.001Z,11.72
2018-04-11T07:40:53.020Z,11.64
2018-04-11T07:41:53.035Z,11.70
2018-04-11T07:42:53.059Z,11.82
2018-04-11T07:43:53.081Z,11.71
2018-04-11T07:44:53.099Z,11.65
2018-04-11T07:45:53.114Z,11.65
2018-04-11T07:46:53.140Z,11.54
2018-04-11T07:47:53.161Z,11.49
2018-04-11T07:48:53.180Z,11.44
2018-04-11T07:49:53.196Z,11.54
2018-04-11T07:50:53.217Z,11.68
2018-04-11T07:51:53.236Z,11.74
2018-04-11T07:52:53.259Z,11.78
2018-04-11T07:53:53.276Z,11.75
2018-04-11T07:54:53.293Z,11.72
2018-04-11T07:55:53.318Z,11.70
2018-04-11T07:56:53.338Z,11.74
2018-04-11T07:57:53.355Z,11.87
2018-04-11T07:58:53.380Z,12.06
2018-04-11T07:59:53.399Z,12.13
2018-04-11T08:00:53.417Z,12.09
2018-04-11T08:01:53.435Z,11.97
2018-04-11T08:02:53.521Z,12.02
2018-04-11T08:03:53.479Z,11.96
2018-04-11T08:04:53.496Z,11.99
2018-04-11T08:05:53.519Z,11.94
2018-04-11T08:06:53.536Z,11.80
2018-04-11T08:07:53.558Z,11.87
2018-04-11T08:08:53.573Z,11.75
2018-04-11T08:09:53.598Z,11.82
2018-04-11T08:10:53.614Z,11.80
2018-04-11T08:11:53.639Z,11.89
2018-04-11T08:12:53.652Z,11.87
2018-04-11T08:13:53.675Z,12.16
2018-04-11T08:14:53.706Z,12.11
2018-04-11T08:15:53.711Z,12.06
2018-04-11T08:16:53.736Z,12.11
2018-04-11T08:17:53.774Z,12.13
2018-04-11T08:18:53.806Z,12.26
2018-04-11T08:19:53.799Z,12.11
2018-04-11T08:20:53.820Z,12.15
2018-04-11T08:21:53.833Z,12.37
2018-04-11T08:22:53.850Z,12.39
2018-04-11T08:23:53.877Z,12.42
2018-04-11T08:24:53.897Z,12.39
2018-04-11T08:25:53.920Z,12.39
2018-04-11T08:26:53.957Z,12.41
2018-04-11T08:27:53.960Z,12.48
2018-04-11T08:28:53.986Z,12.51
2018-04-11T08:29:54.020Z,12.59
2018-04-11T08:30:54.017Z,12.79
2018-04-11T08:31:54.042Z,12.71
2018-04-11T08:32:54.061Z,12.71
2018-04-11T08:33:54.078Z,12.44
2018-04-11T08:34:54.103Z,12.41
2018-04-11T08:35:54.127Z,12.46
2018-04-11T08:36:54.140Z,12.56
2018-04-11T08:37:54.168Z,12.54
2018-04-11T08:38:54.188Z,12.42
2018-04-11T08:39:54.209Z,12.33
2018-04-11T08:40:54.219Z,12.39
2018-04-11T08:41:54.241Z,12.51
2018-04-11T08:42:54.266Z,12.42
2018-04-11T08:43:54.283Z,12.46
2018-04-11T08:44:54.312Z,12.57
2018-04-11T08:45:54.322Z,12.49
2018-04-11T08:46:54.341Z,12.56
2018-04-11T08:47:54.365Z,12.69
2018-04-11T08:48:54.387Z,12.81
2018-04-11T08:49:54.408Z,12.93
2018-04-11T08:50:54.424Z,12.99
2018-04-11T08:51:54.451Z,13.09
2018-04-11T08:52:54.465Z,13.09
2018-04-11T08:53:54.482Z,13.18
2018-04-11T08:54:54.508Z,13.17
2018-04-11T08:55:54.528Z,13.21
2018-04-11T08:56:54.552Z,13.22
2018-04-11T08:57:54.569Z,13.18
2018-04-11T08:58:54.590Z,13.21
2018-04-11T08:59:54.617Z,13.03
2018-04-11T09:00:54.630Z,13.04
2018-04-11T09:01:54.654Z,13.07
2018-04-11T09:02:54.678Z,13.04
2018-04-11T09:03:54.719Z,13.14
2018-04-11T09:04:54.715Z,13.12
2018-04-11T09:05:54.736Z,13.07
2018-04-11T09:06:54.785Z,13.32
2018-04-11T09:07:54.777Z,13.32
2018-04-11T09:08:54.793Z,13.33
2018-04-11T09:09:54.820Z,13.30
2018-04-11T09:10:54.837Z,13.46
2018-04-11T09:11:54.863Z,13.59
2018-04-11T09:12:54.881Z,13.56
2018-04-11T09:13:54.901Z,13.54
2018-04-11T09:14:54.920Z,13.59
2018-04-11T09:15:54.949Z,13.77
2018-04-11T09:16:54.968Z,13.74
2018-04-11T09:17:54.985Z,13.67
2018-04-11T09:18:55.006Z,13.70
2018-04-11T09:19:55.026Z,13.88
2018-04-11T09:20:55.047Z,13.95
2018-04-11T09:21:55.070Z,13.87
2018-04-11T09:22:55.092Z,13.83
2018-04-11T09:23:55.110Z,13.87
2018-04-11T09:24:55.131Z,13.84
2018-04-11T09:25:55.154Z,14.07
2018-04-11T09:26:55.221Z,14.02
2018-04-11T09:27:55.196Z,13.99
2018-04-11T09:28:55.218Z,14.14
2018-04-11T09:29:55.234Z,14.12
2018-04-11T09:30:55.256Z,13.98
2018-04-11T09:31:55.334Z,14.12
2018-04-11T09:32:55.327Z,14.04
2018-04-11T09:33:55.325Z,14.12
2018-04-11T09:34:55.342Z,13.98
2018-04-11T09:35:55.361Z,13.95
2018-04-11T09:36:55.379Z,14.16
2018-04-11T09:37:55.412Z,14.27
2018-04-11T09:38:55.421Z,14.19
2018-04-11T09:39:55.472Z,14.37
2018-04-11T09:40:55.471Z,14.28
2018-04-11T09:41:55.518Z,14.24
2018-04-11T09:42:55.514Z,14.25
2018-04-11T09:43:55.534Z,14.21
2018-04-11T09:44:55.559Z,14.31
2018-04-11T09:45:55.581Z,14.27
2018-04-11T09:46:55.599Z,14.34
2018-04-11T09:47:55.615Z,14.43
2018-04-11T09:48:55.645Z,14.34
2018-04-11T09:49:55.668Z,14.34
2018-04-11T09:50:55.685Z,14.42
2018-04-11T09:51:55.734Z,14.34
2018-04-11T09:52:55.751Z,14.29
2018-04-11T09:53:55.745Z,14.34
2018-04-11T09:54:55.766Z,14.31
2018-04-11T09:55:55.799Z,14.50
2018-04-11T09:56:55.810Z,14.56
2018-04-11T09:57:55.833Z,14.60
2018-04-11T09:58:55.856Z,14.65
2018-04-11T09:59:55.877Z,14.74
2018-04-11T10:00:55.906Z,14.71
2018-04-11T10:01:55.917Z,14.72
2018-04-11T10:02:55.941Z,14.71
2018-04-11T10:03:55.968Z,14.67
2018-04-11T10:04:55.995Z,14.65
2018-04-11T10:05:56.007Z,14.62
2018-04-11T10:06:56.080Z,14.56
2018-04-11T10:07:56.064Z,14.65
2018-04-11T10:08:56.075Z,14.72
2018-04-11T10:09:56.098Z,14.72
2018-04-11T10:10:56.112Z,14.81
2018-04-11T10:11:56.130Z,14.91
2018-04-11T10:12:56.161Z,14.94
2018-04-11T10:13:56.191Z,14.81
2018-04-11T10:14:56.222Z,14.72
2018-04-11T10:15:56.224Z,14.81
2018-04-11T10:16:56.252Z,14.84
2018-04-11T10:17:56.277Z,14.91
2018-04-11T10:18:56.295Z,15.06
2018-04-11T10:19:56.305Z,15.03
2018-04-11T10:20:56.338Z,15.05
2018-04-11T10:21:56.354Z,15.20
2018-04-11T10:22:56.374Z,15.15
2018-04-11T10:23:56.407Z,15.08
2018-04-11T10:24:56.428Z,15.15
2018-04-11T10:25:56.444Z,14.91
2018-04-11T10:26:56.464Z,15.09
2018-04-11T10:27:56.489Z,15.13
2018-04-11T10:28:56.502Z,15.12
2018-04-11T10:29:56.538Z,15.05
2018-04-11T10:30:56.557Z,15.09
2018-04-11T10:31:56.584Z,15.24
2018-04-11T10:32:56.599Z,15.27
2018-04-11T10:33:56.613Z,15.33
2018-04-11T10:34:56.642Z,15.38
2018-04-11T10:35:56.656Z,15.36
2018-04-11T10:36:56.719Z,15.46
2018-04-11T10:37:56.710Z,15.51
2018-04-11T10:38:56.726Z,15.36
2018-04-11T10:39:56.745Z,15.51
2018-04-11T10:40:56.778Z,15.48
2018-04-11T10:41:56.815Z,15.51
2018-04-11T10:42:56.813Z,15.45
2018-04-11T10:43:56.839Z,15.57
2018-04-11T10:44:56.874Z,15.39
2018-04-11T10:45:56.887Z,15.31
2018-04-11T10:46:56.901Z,15.35
2018-04-11T10:47:56.937Z,15.42
2018-04-11T10:48:56.949Z,15.54
2018-04-11T10:49:56.972Z,15.51
2018-04-11T10:50:57.000Z,15.57
2018-04-11T10:51:57.013Z,15.59
2018-04-11T10:52:57.037Z,15.60
2018-04-11T10:53:57.061Z,15.61
2018-04-11T10:54:57.089Z,15.48
2018-04-11T10:55:57.124Z,15.41
2018-04-11T10:56:57.154Z,15.56
2018-04-11T10:57:57.152Z,15.61
2018-04-11T10:58:57.169Z,15.60
2018-04-11T10:59:57.197Z,15.78
2018-04-11T11:00:57.221Z,15.85
2018-04-11T11:01:57.240Z,15.82
2018-04-11T11:02:57.265Z,15.84
2018-04-11T11:03:57.284Z,15.89
2018-04-11T11:04:57.308Z,15.85
2018-04-11T11:05:57.327Z,15.94
2018-04-11T11:06:57.344Z,15.84
2018-04-11T11:07:57.374Z,15.93
2018-04-11T11:08:57.395Z,15.97
2018-04-11T11:09:57.415Z,16.27
2018-04-11T11:10:57.455Z,16.22
2018-04-11T11:11:57.463Z,16.18
2018-04-11T11:12:57.567Z,16.16
2018-04-11T11:13:57.511Z,16.23
2018-04-11T11:14:57.536Z,16.22
2018-04-11T11:15:57.556Z,16.25
2018-04-11T11:16:57.578Z,16.09
2018-04-11T11:17:57.609Z,16.23
2018-04-11T11:18:57.621Z,16.45
2018-04-11T11:19:57.642Z,16.37
2018-04-11T11:20:57.666Z,16.44
2018-04-11T11:21:57.687Z,16.50
2018-04-11T11:22:57.712Z,16.50
2018-04-11T11:23:57.738Z,16.48
2018-04-11T11:24:57.761Z,16.48
2018-04-11T11:25:57.784Z,16.50
2018-04-11T11:26:57.803Z,16.48
2018-04-11T11:27:57.828Z,16.63
2018-04-11T11:28:57.850Z,16.73
2018-04-11T11:29:57.875Z,16.83
2018-04-11T11:30:57.978Z,16.96
2018-04-11T11:31:57.919Z,16.98
2018-04-11T11:32:57.940Z,16.99
2018-04-11T11:33:57.966Z,17.11
2018-04-11T11:34:57.983Z,17.11
2018-04-11T11:35:58.001Z,17.11
2018-04-11T11:36:58.032Z,17.22
2018-04-11T11:37:58.052Z,16.96
2018-04-11T11:38:58.073Z,17.03
2018-04-11T11:39:58.095Z,17.23
2018-04-11T11:40:58.126Z,17.26
2018-04-11T11:41:58.148Z,17.35
2018-04-11T11:42:58.167Z,17.43
2018-04-11T11:43:58.186Z,17.51
2018-04-11T11:44:58.215Z,17.53
2018-04-11T11:45:58.268Z,17.62
2018-04-11T11:46:58.258Z,17.57
2018-04-11T11:47:58.289Z,17.62
2018-04-11T11:48:58.309Z,17.71
2018-04-11T11:49:58.330Z,17.74
2018-04-11T11:50:58.355Z,17.79
2018-04-11T11:51:58.384Z,17.78
2018-04-11T11:52:58.399Z,17.92
2018-04-11T11:53:58.422Z,17.78
2018-04-11T11:54:58.451Z,17.78
2018-04-11T11:55:58.467Z,17.82
2018-04-11T11:56:58.500Z,17.73
2018-04-11T11:57:58.530Z,17.85
2018-04-11T11:58:58.554Z,17.92
2018-04-11T11:59:58.564Z,17.87
2018-04-11T12:00:58.590Z,17.74
2018-04-11T12:01:58.657Z,17.88
2018-04-11T12:02:58.685Z,18.07
2018-04-11T12:03:58.659Z,18.33
2018-04-11T12:04:58.702Z,18.33
2018-04-11T12:05:58.717Z,18.34
2018-04-11T12:06:58.730Z,18.43
2018-04-11T12:07:58.815Z,18.58
2018-04-11T12:08:58.783Z,18.65
2018-04-11T12:09:58.807Z,18.55
2018-04-11T12:10:58.827Z,18.58
2018-04-11T12:11:58.868Z,18.47
2018-04-11T12:12:58.875Z,18.61
2018-04-11T12:13:58.903Z,18.52
2018-04-11T12:14:58.920Z,18.55
2018-04-11T12:15:58.952Z,18.52
2018-04-11T12:16:58.973Z,18.77
2018-04-11T12:17:59.000Z,18.47
2018-04-11T12:18:59.023Z,18.40
2018-04-11T12:19:59.057Z,18.57
2018-04-11T12:20:59.066Z,18.67
2018-04-11T12:21:59.093Z,18.82
2018-04-11T12:22:59.119Z,18.73
2018-04-11T12:23:59.144Z,18.84
2018-04-11T12:24:59.164Z,18.84
2018-04-11T12:25:59.196Z,19.01
2018-04-11T12:26:59.212Z,19.08
2018-04-11T12:27:59.246Z,19.17
2018-04-11T12:28:59.269Z,18.99
2018-04-11T12:29:59.289Z,19.11
2018-04-11T12:30:59.314Z,19.13
2018-04-11T12:31:59.378Z,19.25
2018-04-11T12:32:59.369Z,19.53
2018-04-11T12:33:59.389Z,19.61
2018-04-11T12:34:59.411Z,19.86
2018-04-11T12:35:59.437Z,19.93
2018-04-11T12:36:59.468Z,20.24
2018-04-11T12:37:59.489Z,20.20
2018-04-11T12:38:59.597Z,20.47
2018-04-11T12:39:59.538Z,20.03
2018-04-11T12:40:59.572Z,19.91
2018-04-11T12:41:59.587Z,20.09
2018-04-11T12:42:59.614Z,20.56
2018-04-11T12:43:59.639Z,20.76
2018-04-11T12:44:59.664Z,20.77
2018-04-11T12:45:59.701Z,20.68
2018-04-11T12:46:59.714Z,21.02
2018-04-11T12:47:59.744Z,20.98
2018-04-11T12:48:59.773Z,20.87
2018-04-11T12:49:59.792Z,20.91
2018-04-11T12:50:59.826Z,21.74
2018-04-11T12:51:59.848Z,21.88
2018-04-11T12:52:59.878Z,21.83
2018-04-11T12:53:59.906Z,22.23
2018-04-11T12:54:59.932Z,22.80
2018-04-11T12:55:59.957Z,22.62
2018-04-11T12:57:00.008Z,22.39
2018-04-11T12:58:00.014Z,21.60
2018-04-11T12:59:00.042Z,22.67
2018-04-11T13:00:00.070Z,22.89
2018-04-11T13:01:00.094Z,23.01
2018-04-11T13:02:00.126Z,22.37
2018-04-11T13:03:00.150Z,22.53